Indianapolis International Airport
KIND : now visible

Airfield :











YOU CAN JOIN US ON...

 
LOGIN :

Register | Disclaimer

   EN    FR    IT 

 









Legend :    VFR   Marginal VFR   IFR   Intensive IFR   Very Intensive IFR
Visi :
Ceiling :
>= 8 km
>= 3000ft
5 to 8 km
1000 to 3000 ft
1500m to 5 km
500 to 1000 ft
800 to 1500m
200 to 500 ft
< 800m
< 200 ft
Symbols :   Thunderstorms  Fog  Heavy snow  Heavy precipitations  Wind > 20 kt







- Airport Elevation : 797 ft
- IATA code : IND


KIND - Indianapolis International

CURRENT METAR :
  • 201654Z 00000KT 10SM FEW040 SCT200 SCT250 28/18 A3016 RMK AO2 SLP204 T02830183

EXPIRED METARs :
  • 201554Z 21003KT 10SM SCT200 SCT250 27/19 A3017 RMK AO2 SLP209 T02670194
  • 201454Z 22004KT 10SM SCT200 25/19 A3017 RMK AO2 SLP208 T02500189 51009

TAF KIND
Valid from the 20 at 14:00 until the 21 at 18:00 UTC


201427Z 2014/2118 20006KT P6SM FEW070 SCT250
FM201700 22006KT P6SM SCT035 BKN180
FM202200 21006KT P6SM FEW040 SCT250
No reported NOTAMs for that airfield.



MET'MAP, your aeronautical weather chart ! - Copyright ORBIFLY December 2007 - Disclaimer

ORBIFLY MET'MAP TEAM :

Programming & Development : Alexandra Zaïnal
Concept & Development : Baudouin d'Aumeries
Co-Development & Prog : Marc-Olivier Méhu
Technical & hardware support : Manuel Goepfert

Contact : metmap@orbifly.com




SOURCES & CREDITS :

   NOAA       Earth
Advisory